sensor_id;sensor_type;location;lat;lon;timestamp;P1;durP1;ratioP1;P2;durP2;ratioP2
34900;SDS011;21112;51.976;5.660;2023-04-25T00:01:18;2.08;;;0.80;;
34900;SDS011;21112;51.976;5.660;2023-04-25T00:03:45;7.03;;;1.33;;
34900;SDS011;21112;51.976;5.660;2023-04-25T00:06:11;4.07;;;1.05;;
34900;SDS011;21112;51.976;5.660;2023-04-25T00:08:38;1.60;;;0.85;;
34900;SDS011;21112;51.976;5.660;2023-04-25T00:11:04;3.20;;;1.00;;
34900;SDS011;21112;51.976;5.660;2023-04-25T00:13:31;4.85;;;1.10;;
34900;SDS011;21112;51.976;5.660;2023-04-25T00:15:58;4.65;;;1.05;;
34900;SDS011;21112;51.976;5.660;2023-04-25T00:18:25;3.58;;;1.08;;
34900;SDS011;21112;51.976;5.660;2023-04-25T00:20:54;5.35;;;1.15;;
34900;SDS011;21112;51.976;5.660;2023-04-25T00:23:20;3.00;;;1.00;;
34900;SDS011;21112;51.976;5.660;2023-04-25T00:25:48;5.03;;;0.93;;
34900;SDS011;21112;51.976;5.660;2023-04-25T00:28:14;1.85;;;1.00;;
34900;SDS011;21112;51.976;5.660;2023-04-25T00:30:41;5.28;;;1.10;;
34900;SDS011;21112;51.976;5.660;2023-04-25T00:33:10;2.60;;;1.08;;
34900;SDS011;21112;51.976;5.660;2023-04-25T00:35:36;4.93;;;1.00;;
34900;SDS011;21112;51.976;5.660;2023-04-25T00:38:02;4.07;;;0.90;;
34900;SDS011;21112;51.976;5.660;2023-04-25T00:40:29;2.35;;;0.98;;
34900;SDS011;21112;51.976;5.660;2023-04-25T00:42:56;6.28;;;1.05;;
34900;SDS011;21112;51.976;5.660;2023-04-25T00:45:22;2.53;;;0.90;;
34900;SDS011;21112;51.976;5.660;2023-04-25T00:47:53;2.90;;;1.13;;
34900;SDS011;21112;51.976;5.660;2023-04-25T00:50:21;2.75;;;1.13;;
34900;SDS011;21112;51.976;5.660;2023-04-25T00:52:48;3.17;;;1.20;;
34900;SDS011;21112;51.976;5.660;2023-04-25T00:55:14;3.60;;;1.30;;
34900;SDS011;21112;51.976;5.660;2023-04-25T00:57:42;5.22;;;1.23;;
34900;SDS011;21112;51.976;5.660;2023-04-25T01:00:09;4.30;;;1.27;;
34900;SDS011;21112;51.976;5.660;2023-04-25T01:02:38;5.35;;;1.40;;
34900;SDS011;21112;51.976;5.660;2023-04-25T01:05:04;3.55;;;1.20;;
34900;SDS011;21112;51.976;5.660;2023-04-25T01:07:32;3.05;;;0.85;;
34900;SDS011;21112;51.976;5.660;2023-04-25T01:09:59;2.65;;;0.95;;
34900;SDS011;21112;51.976;5.660;2023-04-25T01:12:25;4.80;;;1.38;;
34900;SDS011;21112;51.976;5.660;2023-04-25T01:14:52;3.75;;;1.17;;
34900;SDS011;21112;51.976;5.660;2023-04-25T01:17:18;2.08;;;1.10;;
34900;SDS011;21112;51.976;5.660;2023-04-25T01:19:46;3.13;;;1.10;;
34900;SDS011;21112;51.976;5.660;2023-04-25T01:22:15;4.55;;;1.00;;
34900;SDS011;21112;51.976;5.660;2023-04-25T01:24:42;2.17;;;1.10;;
34900;SDS011;21112;51.976;5.660;2023-04-25T01:27:08;4.35;;;1.00;;
34900;SDS011;21112;51.976;5.660;2023-04-25T01:29:35;2.90;;;1.13;;
34900;SDS011;21112;51.976;5.660;2023-04-25T01:32:02;4.63;;;1.30;;
34900;SDS011;21112;51.976;5.660;2023-04-25T01:34:29;4.90;;;1.10;;
34900;SDS011;21112;51.976;5.660;2023-04-25T01:36:56;6.57;;;1.38;;
34900;SDS011;21112;51.976;5.660;2023-04-25T01:39:24;5.20;;;1.08;;
34900;SDS011;21112;51.976;5.660;2023-04-25T01:41:50;7.35;;;1.70;;
34900;SDS011;21112;51.976;5.660;2023-04-25T01:44:17;4.70;;;1.15;;
34900;SDS011;21112;51.976;5.660;2023-04-25T01:46:43;4.85;;;1.33;;
34900;SDS011;21112;51.976;5.660;2023-04-25T01:49:10;1.38;;;0.90;;
34900;SDS011;21112;51.976;5.660;2023-04-25T01:51:36;6.53;;;1.20;;
34900;SDS011;21112;51.976;5.660;2023-04-25T01:54:03;2.97;;;1.10;;
34900;SDS011;21112;51.976;5.660;2023-04-25T01:56:32;3.20;;;1.10;;
34900;SDS011;21112;51.976;5.660;2023-04-25T01:58:59;4.25;;;1.17;;
34900;SDS011;21112;51.976;5.660;2023-04-25T02:01:25;6.05;;;1.25;;
34900;SDS011;21112;51.976;5.660;2023-04-25T02:03:52;3.58;;;1.20;;
34900;SDS011;21112;51.976;5.660;2023-04-25T02:06:18;1.70;;;0.80;;
34900;SDS011;21112;51.976;5.660;2023-04-25T02:08:45;2.45;;;1.10;;
34900;SDS011;21112;51.976;5.660;2023-04-25T02:11:11;4.40;;;1.17;;
34900;SDS011;21112;51.976;5.660;2023-04-25T02:13:39;3.72;;;1.38;;
34900;SDS011;21112;51.976;5.660;2023-04-25T02:16:05;5.37;;;1.40;;
34900;SDS011;21112;51.976;5.660;2023-04-25T02:18:34;5.97;;;1.73;;
34900;SDS011;21112;51.976;5.660;2023-04-25T02:21:02;4.38;;;1.50;;
34900;SDS011;21112;51.976;5.660;2023-04-25T02:23:28;4.90;;;1.20;;
34900;SDS011;21112;51.976;5.660;2023-04-25T02:25:55;4.35;;;1.02;;
34900;SDS011;21112;51.976;5.660;2023-04-25T02:28:23;5.10;;;1.30;;
34900;SDS011;21112;51.976;5.660;2023-04-25T02:30:50;5.35;;;1.27;;
34900;SDS011;21112;51.976;5.660;2023-04-25T02:33:17;5.53;;;1.10;;
34900;SDS011;21112;51.976;5.660;2023-04-25T02:35:43;5.82;;;1.10;;
34900;SDS011;21112;51.976;5.660;2023-04-25T02:38:10;9.60;;;1.30;;
34900;SDS011;21112;51.976;5.660;2023-04-25T02:40:36;5.80;;;1.13;;
34900;SDS011;21112;51.976;5.660;2023-04-25T02:43:03;3.92;;;1.17;;
34900;SDS011;21112;51.976;5.660;2023-04-25T02:45:30;3.90;;;1.20;;
34900;SDS011;21112;51.976;5.660;2023-04-25T02:47:57;4.22;;;1.00;;
34900;SDS011;21112;51.976;5.660;2023-04-25T02:50:24;4.97;;;1.40;;
34900;SDS011;21112;51.976;5.660;2023-04-25T02:52:50;5.20;;;1.15;;
34900;SDS011;21112;51.976;5.660;2023-04-25T02:55:17;4.97;;;1.40;;
34900;SDS011;21112;51.976;5.660;2023-04-25T02:57:43;4.93;;;1.15;;
34900;SDS011;21112;51.976;5.660;2023-04-25T03:00:10;5.75;;;1.33;;
34900;SDS011;21112;51.976;5.660;2023-04-25T03:02:39;4.28;;;1.30;;
34900;SDS011;21112;51.976;5.660;2023-04-25T03:05:07;4.20;;;1.58;;
34900;SDS011;21112;51.976;5.660;2023-04-25T03:07:36;5.57;;;1.40;;
34900;SDS011;21112;51.976;5.660;2023-04-25T03:10:04;6.10;;;1.40;;
34900;SDS011;21112;51.976;5.660;2023-04-25T03:12:31;6.32;;;1.20;;
34900;SDS011;21112;51.976;5.660;2023-04-25T03:14:58;4.60;;;1.15;;
34900;SDS011;21112;51.976;5.660;2023-04-25T03:17:27;4.45;;;1.30;;
34900;SDS011;21112;51.976;5.660;2023-04-25T03:19:54;4.47;;;1.40;;
34900;SDS011;21112;51.976;5.660;2023-04-25T03:22:22;3.70;;;1.17;;
34900;SDS011;21112;51.976;5.660;2023-04-25T03:24:49;5.95;;;1.30;;
34900;SDS011;21112;51.976;5.660;2023-04-25T03:27:16;2.35;;;1.10;;
34900;SDS011;21112;51.976;5.660;2023-04-25T03:29:42;5.70;;;1.27;;
34900;SDS011;21112;51.976;5.660;2023-04-25T03:32:09;6.63;;;1.50;;
34900;SDS011;21112;51.976;5.660;2023-04-25T03:34:35;4.22;;;1.50;;
34900;SDS011;21112;51.976;5.660;2023-04-25T03:37:02;1.92;;;1.10;;
34900;SDS011;21112;51.976;5.660;2023-04-25T03:39:30;3.25;;;1.15;;
34900;SDS011;21112;51.976;5.660;2023-04-25T03:41:56;5.03;;;1.10;;
34900;SDS011;21112;51.976;5.660;2023-04-25T03:44:23;4.18;;;1.38;;
34900;SDS011;21112;51.976;5.660;2023-04-25T03:46:50;3.38;;;1.38;;
34900;SDS011;21112;51.976;5.660;2023-04-25T03:49:17;3.67;;;1.10;;
34900;SDS011;21112;51.976;5.660;2023-04-25T03:51:43;4.60;;;1.80;;
34900;SDS011;21112;51.976;5.660;2023-04-25T03:54:10;4.75;;;1.55;;
34900;SDS011;21112;51.976;5.660;2023-04-25T03:56:38;6.88;;;1.70;;
34900;SDS011;21112;51.976;5.660;2023-04-25T03:59:04;4.50;;;1.80;;
34900;SDS011;21112;51.976;5.660;2023-04-25T04:01:32;5.78;;;1.50;;
34900;SDS011;21112;51.976;5.660;2023-04-25T04:03:59;6.15;;;1.70;;
34900;SDS011;21112;51.976;5.660;2023-04-25T04:06:25;4.10;;;1.50;;
34900;SDS011;21112;51.976;5.660;2023-04-25T04:08:52;3.90;;;1.70;;
34900;SDS011;21112;51.976;5.660;2023-04-25T04:11:19;3.65;;;1.30;;
34900;SDS011;21112;51.976;5.660;2023-04-25T04:13:49;6.72;;;1.30;;
34900;SDS011;21112;51.976;5.660;2023-04-25T04:16:16;4.38;;;1.77;;
34900;SDS011;21112;51.976;5.660;2023-04-25T04:18:44;4.57;;;1.27;;
34900;SDS011;21112;51.976;5.660;2023-04-25T04:21:11;4.05;;;1.27;;
34900;SDS011;21112;51.976;5.660;2023-04-25T04:23:37;5.13;;;1.38;;
34900;SDS011;21112;51.976;5.660;2023-04-25T04:26:04;3.38;;;1.38;;
34900;SDS011;21112;51.976;5.660;2023-04-25T04:28:30;3.78;;;1.50;;
34900;SDS011;21112;51.976;5.660;2023-04-25T04:30:58;6.88;;;1.52;;
34900;SDS011;21112;51.976;5.660;2023-04-25T04:33:31;7.63;;;1.48;;
34900;SDS011;21112;51.976;5.660;2023-04-25T04:35:57;4.65;;;1.45;;
34900;SDS011;21112;51.976;5.660;2023-04-25T04:38:24;5.30;;;1.48;;
34900;SDS011;21112;51.976;5.660;2023-04-25T04:40:51;3.67;;;1.30;;
34900;SDS011;21112;51.976;5.660;2023-04-25T04:43:18;4.63;;;1.48;;
34900;SDS011;21112;51.976;5.660;2023-04-25T04:45:45;6.20;;;1.40;;
34900;SDS011;21112;51.976;5.660;2023-04-25T04:48:13;4.97;;;1.42;;
34900;SDS011;21112;51.976;5.660;2023-04-25T04:50:39;4.27;;;1.60;;
34900;SDS011;21112;51.976;5.660;2023-04-25T04:53:06;6.57;;;1.52;;
34900;SDS011;21112;51.976;5.660;2023-04-25T04:55:34;5.18;;;1.67;;
34900;SDS011;21112;51.976;5.660;2023-04-25T04:58:00;4.85;;;1.70;;
34900;SDS011;21112;51.976;5.660;2023-04-25T05:00:30;5.18;;;1.70;;
34900;SDS011;21112;51.976;5.660;2023-04-25T05:02:57;5.70;;;1.85;;
34900;SDS011;21112;51.976;5.660;2023-04-25T05:05:24;4.32;;;1.70;;
34900;SDS011;21112;51.976;5.660;2023-04-25T05:07:51;6.15;;;1.67;;
34900;SDS011;21112;51.976;5.660;2023-04-25T05:10:18;6.68;;;1.45;;
34900;SDS011;21112;51.976;5.660;2023-04-25T05:12:45;4.63;;;1.50;;
34900;SDS011;21112;51.976;5.660;2023-04-25T05:15:11;7.07;;;1.45;;
34900;SDS011;21112;51.976;5.660;2023-04-25T05:17:38;3.80;;;1.33;;
34900;SDS011;21112;51.976;5.660;2023-04-25T05:20:05;5.70;;;1.98;;
34900;SDS011;21112;51.976;5.660;2023-04-25T05:22:35;4.32;;;1.42;;
34900;SDS011;21112;51.976;5.660;2023-04-25T05:25:02;4.90;;;1.23;;
34900;SDS011;21112;51.976;5.660;2023-04-25T05:27:33;3.97;;;1.40;;
34900;SDS011;21112;51.976;5.660;2023-04-25T05:30:08;6.25;;;1.90;;
34900;SDS011;21112;51.976;5.660;2023-04-25T05:32:35;8.48;;;1.80;;
34900;SDS011;21112;51.976;5.660;2023-04-25T05:35:01;6.45;;;2.45;;
34900;SDS011;21112;51.976;5.660;2023-04-25T05:37:32;7.57;;;2.22;;
34900;SDS011;21112;51.976;5.660;2023-04-25T05:40:00;6.97;;;1.75;;
34900;SDS011;21112;51.976;5.660;2023-04-25T05:42:26;4.32;;;1.38;;
34900;SDS011;21112;51.976;5.660;2023-04-25T05:44:59;4.22;;;1.50;;
34900;SDS011;21112;51.976;5.660;2023-04-25T05:47:34;6.55;;;1.75;;
34900;SDS011;21112;51.976;5.660;2023-04-25T05:50:01;5.47;;;1.67;;
34900;SDS011;21112;51.976;5.660;2023-04-25T05:52:27;4.25;;;1.50;;
34900;SDS011;21112;51.976;5.660;2023-04-25T05:54:54;6.85;;;1.70;;
34900;SDS011;21112;51.976;5.660;2023-04-25T05:57:23;6.85;;;1.65;;
34900;SDS011;21112;51.976;5.660;2023-04-25T05:59:50;6.40;;;1.80;;
34900;SDS011;21112;51.976;5.660;2023-04-25T06:02:16;5.95;;;1.40;;
34900;SDS011;21112;51.976;5.660;2023-04-25T06:04:43;6.45;;;1.80;;
34900;SDS011;21112;51.976;5.660;2023-04-25T06:07:09;7.38;;;1.77;;
34900;SDS011;21112;51.976;5.660;2023-04-25T06:09:36;4.90;;;1.50;;
34900;SDS011;21112;51.976;5.660;2023-04-25T06:12:04;4.13;;;1.45;;
34900;SDS011;21112;51.976;5.660;2023-04-25T06:14:32;5.07;;;1.23;;
34900;SDS011;21112;51.976;5.660;2023-04-25T06:17:00;10.82;;;1.70;;
34900;SDS011;21112;51.976;5.660;2023-04-25T06:19:31;6.35;;;1.55;;
34900;SDS011;21112;51.976;5.660;2023-04-25T06:21:58;4.20;;;1.50;;
34900;SDS011;21112;51.976;5.660;2023-04-25T06:24:24;4.63;;;1.52;;
34900;SDS011;21112;51.976;5.660;2023-04-25T06:26:50;8.18;;;1.75;;
34900;SDS011;21112;51.976;5.660;2023-04-25T06:29:17;5.03;;;1.52;;
34900;SDS011;21112;51.976;5.660;2023-04-25T06:31:46;4.13;;;1.42;;
34900;SDS011;21112;51.976;5.660;2023-04-25T06:34:15;5.78;;;1.40;;
34900;SDS011;21112;51.976;5.660;2023-04-25T06:36:44;3.83;;;1.27;;
34900;SDS011;21112;51.976;5.660;2023-04-25T06:39:10;4.22;;;1.77;;
34900;SDS011;21112;51.976;5.660;2023-04-25T06:41:37;3.97;;;1.48;;
34900;SDS011;21112;51.976;5.660;2023-04-25T06:44:03;2.72;;;1.15;;
34900;SDS011;21112;51.976;5.660;2023-04-25T06:46:30;3.13;;;1.45;;
34900;SDS011;21112;51.976;5.660;2023-04-25T06:48:57;5.72;;;1.25;;
34900;SDS011;21112;51.976;5.660;2023-04-25T06:51:24;3.95;;;1.40;;
34900;SDS011;21112;51.976;5.660;2023-04-25T06:53:53;3.65;;;1.35;;
34900;SDS011;21112;51.976;5.660;2023-04-25T06:56:19;5.55;;;1.30;;
34900;SDS011;21112;51.976;5.660;2023-04-25T06:58:50;3.85;;;1.10;;
34900;SDS011;21112;51.976;5.660;2023-04-25T07:01:18;3.15;;;1.15;;
34900;SDS011;21112;51.976;5.660;2023-04-25T07:03:47;7.95;;;1.50;;
34900;SDS011;21112;51.976;5.660;2023-04-25T07:08:41;4.60;;;1.40;;
34900;SDS011;21112;51.976;5.660;2023-04-25T07:11:08;11.20;;;1.95;;
34900;SDS011;21112;51.976;5.660;2023-04-25T07:13:34;5.03;;;1.55;;
34900;SDS011;21112;51.976;5.660;2023-04-25T07:16:01;3.50;;;1.38;;
34900;SDS011;21112;51.976;5.660;2023-04-25T07:18:28;3.25;;;1.50;;
34900;SDS011;21112;51.976;5.660;2023-04-25T07:20:57;5.53;;;1.90;;
34900;SDS011;21112;51.976;5.660;2023-04-25T07:23:26;2.97;;;1.30;;
34900;SDS011;21112;51.976;5.660;2023-04-25T07:25:53;3.80;;;1.38;;
34900;SDS011;21112;51.976;5.660;2023-04-25T07:28:23;4.53;;;1.25;;
34900;SDS011;21112;51.976;5.660;2023-04-25T07:30:51;4.80;;;1.25;;
34900;SDS011;21112;51.976;5.660;2023-04-25T07:33:18;2.33;;;1.10;;
34900;SDS011;21112;51.976;5.660;2023-04-25T07:35:46;3.35;;;1.20;;
34900;SDS011;21112;51.976;5.660;2023-04-25T07:38:12;7.45;;;1.25;;
34900;SDS011;21112;51.976;5.660;2023-04-25T07:40:39;3.72;;;1.10;;
34900;SDS011;21112;51.976;5.660;2023-04-25T07:43:07;7.25;;;1.50;;
34900;SDS011;21112;51.976;5.660;2023-04-25T07:45:39;4.70;;;1.45;;
34900;SDS011;21112;51.976;5.660;2023-04-25T07:48:05;7.47;;;1.75;;
34900;SDS011;21112;51.976;5.660;2023-04-25T07:50:32;3.95;;;0.95;;
34900;SDS011;21112;51.976;5.660;2023-04-25T07:52:58;3.35;;;1.45;;
34900;SDS011;21112;51.976;5.660;2023-04-25T07:55:26;4.63;;;1.30;;
34900;SDS011;21112;51.976;5.660;2023-04-25T07:57:58;3.58;;;0.90;;
34900;SDS011;21112;51.976;5.660;2023-04-25T08:00:28;4.50;;;1.20;;
34900;SDS011;21112;51.976;5.660;2023-04-25T08:03:04;1.83;;;1.00;;
34900;SDS011;21112;51.976;5.660;2023-04-25T08:05:32;7.32;;;1.50;;
34900;SDS011;21112;51.976;5.660;2023-04-25T08:07:58;2.25;;;1.00;;
34900;SDS011;21112;51.976;5.660;2023-04-25T08:10:26;2.97;;;1.02;;
34900;SDS011;21112;51.976;5.660;2023-04-25T08:12:52;4.75;;;1.10;;
34900;SDS011;21112;51.976;5.660;2023-04-25T08:15:19;3.92;;;1.23;;
34900;SDS011;21112;51.976;5.660;2023-04-25T08:17:47;4.65;;;1.30;;
34900;SDS011;21112;51.976;5.660;2023-04-25T08:20:13;5.57;;;1.45;;
34900;SDS011;21112;51.976;5.660;2023-04-25T08:22:40;5.00;;;1.17;;
34900;SDS011;21112;51.976;5.660;2023-04-25T08:25:06;5.70;;;1.27;;
34900;SDS011;21112;51.976;5.660;2023-04-25T08:27:36;5.60;;;1.13;;
34900;SDS011;21112;51.976;5.660;2023-04-25T08:30:02;7.80;;;1.77;;
34900;SDS011;21112;51.976;5.660;2023-04-25T08:32:29;8.95;;;1.33;;
34900;SDS011;21112;51.976;5.660;2023-04-25T08:34:57;4.80;;;1.40;;
34900;SDS011;21112;51.976;5.660;2023-04-25T08:37:23;4.47;;;1.38;;
34900;SDS011;21112;51.976;5.660;2023-04-25T08:39:50;5.18;;;1.27;;
34900;SDS011;21112;51.976;5.660;2023-04-25T08:42:18;6.57;;;1.40;;
34900;SDS011;21112;51.976;5.660;2023-04-25T08:44:45;8.18;;;1.42;;
34900;SDS011;21112;51.976;5.660;2023-04-25T08:47:12;6.05;;;1.17;;
34900;SDS011;21112;51.976;5.660;2023-04-25T08:49:39;2.03;;;0.70;;
34900;SDS011;21112;51.976;5.660;2023-04-25T08:52:07;4.70;;;1.02;;
34900;SDS011;21112;51.976;5.660;2023-04-25T08:54:36;6.82;;;1.35;;
34900;SDS011;21112;51.976;5.660;2023-04-25T08:57:03;3.47;;;1.30;;
34900;SDS011;21112;51.976;5.660;2023-04-25T08:59:32;3.78;;;1.70;;
34900;SDS011;21112;51.976;5.660;2023-04-25T09:01:59;4.22;;;1.10;;
34900;SDS011;21112;51.976;5.660;2023-04-25T09:04:26;8.70;;;1.33;;
34900;SDS011;21112;51.976;5.660;2023-04-25T09:06:53;4.28;;;1.00;;
34900;SDS011;21112;51.976;5.660;2023-04-25T09:09:23;2.78;;;0.98;;
34900;SDS011;21112;51.976;5.660;2023-04-25T09:11:50;4.93;;;0.90;;
34900;SDS011;21112;51.976;5.660;2023-04-25T09:14:16;2.75;;;1.02;;
34900;SDS011;21112;51.976;5.660;2023-04-25T09:16:58;1.40;;;0.80;;
34900;SDS011;21112;51.976;5.660;2023-04-25T09:19:25;3.47;;;1.02;;
34900;SDS011;21112;51.976;5.660;2023-04-25T09:21:54;6.55;;;0.80;;
34900;SDS011;21112;51.976;5.660;2023-04-25T09:24:31;4.30;;;0.75;;
34900;SDS011;21112;51.976;5.660;2023-04-25T09:26:57;3.22;;;0.90;;
34900;SDS011;21112;51.976;5.660;2023-04-25T09:29:29;4.25;;;1.13;;
34900;SDS011;21112;51.976;5.660;2023-04-25T09:32:04;6.13;;;1.23;;
34900;SDS011;21112;51.976;5.660;2023-04-25T09:34:38;3.53;;;1.23;;
34900;SDS011;21112;51.976;5.660;2023-04-25T09:37:05;1.98;;;0.82;;
34900;SDS011;21112;51.976;5.660;2023-04-25T09:39:35;2.53;;;1.00;;
34900;SDS011;21112;51.976;5.660;2023-04-25T09:42:02;5.05;;;0.70;;
34900;SDS011;21112;51.976;5.660;2023-04-25T09:44:29;6.13;;;1.08;;
34900;SDS011;21112;51.976;5.660;2023-04-25T09:46:55;4.93;;;1.08;;
34900;SDS011;21112;51.976;5.660;2023-04-25T09:49:30;3.63;;;0.80;;
34900;SDS011;21112;51.976;5.660;2023-04-25T09:51:56;3.63;;;0.80;;
34900;SDS011;21112;51.976;5.660;2023-04-25T09:54:23;7.13;;;1.23;;
34900;SDS011;21112;51.976;5.660;2023-04-25T09:56:52;3.80;;;0.98;;
34900;SDS011;21112;51.976;5.660;2023-04-25T09:59:19;2.28;;;0.93;;
34900;SDS011;21112;51.976;5.660;2023-04-25T10:01:46;5.35;;;1.10;;
34900;SDS011;21112;51.976;5.660;2023-04-25T10:04:14;5.97;;;1.05;;
34900;SDS011;21112;51.976;5.660;2023-04-25T10:06:42;4.35;;;1.10;;
34900;SDS011;21112;51.976;5.660;2023-04-25T10:09:10;3.28;;;1.10;;
34900;SDS011;21112;51.976;5.660;2023-04-25T10:11:39;4.88;;;1.20;;
34900;SDS011;21112;51.976;5.660;2023-04-25T10:14:07;3.85;;;1.10;;
34900;SDS011;21112;51.976;5.660;2023-04-25T10:16:33;5.25;;;0.70;;
34900;SDS011;21112;51.976;5.660;2023-04-25T10:19:00;2.47;;;1.00;;
34900;SDS011;21112;51.976;5.660;2023-04-25T10:21:28;2.30;;;0.90;;
34900;SDS011;21112;51.976;5.660;2023-04-25T10:23:55;7.35;;;1.10;;
34900;SDS011;21112;51.976;5.660;2023-04-25T10:26:24;4.30;;;1.05;;
34900;SDS011;21112;51.976;5.660;2023-04-25T10:28:54;5.85;;;0.90;;
34900;SDS011;21112;51.976;5.660;2023-04-25T10:31:23;4.63;;;1.00;;
34900;SDS011;21112;51.976;5.660;2023-04-25T10:33:49;4.18;;;0.88;;
34900;SDS011;21112;51.976;5.660;2023-04-25T10:36:17;6.03;;;1.17;;
34900;SDS011;21112;51.976;5.660;2023-04-25T10:38:44;3.42;;;0.93;;
34900;SDS011;21112;51.976;5.660;2023-04-25T10:41:11;3.17;;;0.75;;
34900;SDS011;21112;51.976;5.660;2023-04-25T10:43:42;5.18;;;1.00;;
34900;SDS011;21112;51.976;5.660;2023-04-25T10:46:16;2.97;;;0.80;;
34900;SDS011;21112;51.976;5.660;2023-04-25T10:48:47;2.05;;;0.85;;
34900;SDS011;21112;51.976;5.660;2023-04-25T10:51:19;3.03;;;1.00;;
34900;SDS011;21112;51.976;5.660;2023-04-25T10:53:46;6.90;;;0.95;;
34900;SDS011;21112;51.976;5.660;2023-04-25T10:56:16;3.15;;;0.80;;
34900;SDS011;21112;51.976;5.660;2023-04-25T10:58:43;2.53;;;0.60;;
34900;SDS011;21112;51.976;5.660;2023-04-25T11:01:11;3.28;;;0.77;;
34900;SDS011;21112;51.976;5.660;2023-04-25T11:03:39;4.22;;;0.80;;
34900;SDS011;21112;51.976;5.660;2023-04-25T11:06:09;1.88;;;0.75;;
34900;SDS011;21112;51.976;5.660;2023-04-25T11:08:43;2.67;;;0.63;;
34900;SDS011;21112;51.976;5.660;2023-04-25T11:11:14;6.28;;;0.90;;
34900;SDS011;21112;51.976;5.660;2023-04-25T11:13:40;1.35;;;0.60;;
34900;SDS011;21112;51.976;5.660;2023-04-25T11:16:07;2.45;;;0.75;;
34900;SDS011;21112;51.976;5.660;2023-04-25T11:18:36;5.32;;;0.80;;
34900;SDS011;21112;51.976;5.660;2023-04-25T11:21:03;2.80;;;0.90;;
34900;SDS011;21112;51.976;5.660;2023-04-25T11:23:32;6.25;;;0.90;;
34900;SDS011;21112;51.976;5.660;2023-04-25T11:25:59;2.53;;;0.95;;
34900;SDS011;21112;51.976;5.660;2023-04-25T11:28:26;4.10;;;1.05;;
34900;SDS011;21112;51.976;5.660;2023-04-25T11:30:55;5.70;;;0.95;;
34900;SDS011;21112;51.976;5.660;2023-04-25T11:33:23;4.40;;;0.95;;
34900;SDS011;21112;51.976;5.660;2023-04-25T11:35:49;5.03;;;1.30;;
34900;SDS011;21112;51.976;5.660;2023-04-25T11:38:16;5.88;;;0.90;;
34900;SDS011;21112;51.976;5.660;2023-04-25T11:40:44;3.97;;;1.25;;
34900;SDS011;21112;51.976;5.660;2023-04-25T11:43:11;4.90;;;0.95;;
34900;SDS011;21112;51.976;5.660;2023-04-25T11:45:37;5.40;;;1.33;;
34900;SDS011;21112;51.976;5.660;2023-04-25T11:48:04;5.70;;;1.48;;
34900;SDS011;21112;51.976;5.660;2023-04-25T11:50:31;5.53;;;1.27;;
34900;SDS011;21112;51.976;5.660;2023-04-25T11:53:03;3.53;;;1.02;;
34900;SDS011;21112;51.976;5.660;2023-04-25T11:55:31;4.53;;;0.95;;
34900;SDS011;21112;51.976;5.660;2023-04-25T11:57:59;4.15;;;1.13;;
34900;SDS011;21112;51.976;5.660;2023-04-25T12:00:26;3.08;;;1.00;;
34900;SDS011;21112;51.976;5.660;2023-04-25T12:02:56;1.25;;;0.73;;
34900;SDS011;21112;51.976;5.660;2023-04-25T12:05:24;2.58;;;0.90;;
34900;SDS011;21112;51.976;5.660;2023-04-25T12:07:51;3.35;;;0.70;;
34900;SDS011;21112;51.976;5.660;2023-04-25T12:10:18;4.25;;;1.08;;
34900;SDS011;21112;51.976;5.660;2023-04-25T12:12:45;6.07;;;1.10;;
34900;SDS011;21112;51.976;5.660;2023-04-25T12:15:14;3.13;;;0.90;;
34900;SDS011;21112;51.976;5.660;2023-04-25T12:17:44;2.72;;;0.93;;
34900;SDS011;21112;51.976;5.660;2023-04-25T12:20:12;2.20;;;0.93;;
34900;SDS011;21112;51.976;5.660;2023-04-25T12:22:41;2.70;;;0.80;;
34900;SDS011;21112;51.976;5.660;2023-04-25T12:25:10;5.95;;;1.17;;
34900;SDS011;21112;51.976;5.660;2023-04-25T12:27:38;4.13;;;0.88;;
34900;SDS011;21112;51.976;5.660;2023-04-25T12:30:07;2.50;;;0.80;;
34900;SDS011;21112;51.976;5.660;2023-04-25T12:32:40;1.55;;;0.73;;
34900;SDS011;21112;51.976;5.660;2023-04-25T12:35:07;5.40;;;1.02;;
34900;SDS011;21112;51.976;5.660;2023-04-25T12:37:38;1.77;;;0.75;;
34900;SDS011;21112;51.976;5.660;2023-04-25T12:40:07;3.97;;;0.90;;
34900;SDS011;21112;51.976;5.660;2023-04-25T12:42:33;3.00;;;0.77;;
34900;SDS011;21112;51.976;5.660;2023-04-25T12:45:03;5.05;;;1.00;;
34900;SDS011;21112;51.976;5.660;2023-04-25T12:47:33;4.53;;;1.10;;
34900;SDS011;21112;51.976;5.660;2023-04-25T12:50:01;2.80;;;0.90;;
34900;SDS011;21112;51.976;5.660;2023-04-25T12:52:31;5.80;;;1.45;;
34900;SDS011;21112;51.976;5.660;2023-04-25T12:54:57;6.13;;;0.95;;
34900;SDS011;21112;51.976;5.660;2023-04-25T12:57:24;2.42;;;0.55;;
34900;SDS011;21112;51.976;5.660;2023-04-25T12:59:50;3.70;;;0.90;;
34900;SDS011;21112;51.976;5.660;2023-04-25T13:02:17;2.50;;;0.90;;
34900;SDS011;21112;51.976;5.660;2023-04-25T13:04:46;2.20;;;0.65;;
34900;SDS011;21112;51.976;5.660;2023-04-25T13:07:14;6.20;;;1.17;;
34900;SDS011;21112;51.976;5.660;2023-04-25T13:09:41;4.38;;;1.63;;
34900;SDS011;21112;51.976;5.660;2023-04-25T13:12:08;8.13;;;1.67;;
34900;SDS011;21112;51.976;5.660;2023-04-25T13:14:35;3.88;;;1.10;;
34900;SDS011;21112;51.976;5.660;2023-04-25T13:17:01;4.55;;;1.00;;
34900;SDS011;21112;51.976;5.660;2023-04-25T13:19:29;5.90;;;1.30;;
34900;SDS011;21112;51.976;5.660;2023-04-25T13:21:56;2.63;;;0.77;;
34900;SDS011;21112;51.976;5.660;2023-04-25T13:24:25;4.68;;;1.13;;
34900;SDS011;21112;51.976;5.660;2023-04-25T13:26:51;2.70;;;1.00;;
34900;SDS011;21112;51.976;5.660;2023-04-25T13:29:18;2.78;;;0.90;;
34900;SDS011;21112;51.976;5.660;2023-04-25T13:31:44;1.92;;;0.73;;
34900;SDS011;21112;51.976;5.660;2023-04-25T13:34:11;5.05;;;1.10;;
34900;SDS011;21112;51.976;5.660;2023-04-25T13:36:38;5.63;;;1.08;;
34900;SDS011;21112;51.976;5.660;2023-04-25T13:39:04;2.50;;;0.95;;
34900;SDS011;21112;51.976;5.660;2023-04-25T13:41:32;3.22;;;0.88;;
34900;SDS011;21112;51.976;5.660;2023-04-25T13:43:59;4.25;;;1.08;;
34900;SDS011;21112;51.976;5.660;2023-04-25T13:46:26;2.08;;;0.90;;
34900;SDS011;21112;51.976;5.660;2023-04-25T13:48:52;3.45;;;0.90;;
34900;SDS011;21112;51.976;5.660;2023-04-25T13:51:19;4.00;;;0.80;;
34900;SDS011;21112;51.976;5.660;2023-04-25T13:53:45;3.85;;;1.00;;
34900;SDS011;21112;51.976;5.660;2023-04-25T13:56:12;4.50;;;0.98;;
34900;SDS011;21112;51.976;5.660;2023-04-25T13:58:40;2.58;;;0.85;;
34900;SDS011;21112;51.976;5.660;2023-04-25T14:01:06;2.47;;;0.80;;
34900;SDS011;21112;51.976;5.660;2023-04-25T14:03:34;3.35;;;0.80;;
34900;SDS011;21112;51.976;5.660;2023-04-25T14:06:06;2.78;;;0.68;;
34900;SDS011;21112;51.976;5.660;2023-04-25T14:08:33;3.75;;;1.00;;
34900;SDS011;21112;51.976;5.660;2023-04-25T14:11:00;3.30;;;0.90;;
34900;SDS011;21112;51.976;5.660;2023-04-25T14:13:28;2.40;;;0.75;;
34900;SDS011;21112;51.976;5.660;2023-04-25T14:15:56;2.50;;;0.77;;
34900;SDS011;21112;51.976;5.660;2023-04-25T14:18:23;3.90;;;1.02;;
34900;SDS011;21112;51.976;5.660;2023-04-25T14:20:49;4.20;;;0.90;;
34900;SDS011;21112;51.976;5.660;2023-04-25T14:23:16;3.38;;;0.80;;
34900;SDS011;21112;51.976;5.660;2023-04-25T14:25:42;4.18;;;0.82;;
34900;SDS011;21112;51.976;5.660;2023-04-25T14:28:09;3.70;;;0.90;;
34900;SDS011;21112;51.976;5.660;2023-04-25T14:30:36;5.88;;;1.20;;
34900;SDS011;21112;51.976;5.660;2023-04-25T14:33:04;5.70;;;1.00;;
34900;SDS011;21112;51.976;5.660;2023-04-25T14:35:33;3.55;;;1.00;;
34900;SDS011;21112;51.976;5.660;2023-04-25T14:38:03;4.63;;;1.02;;
34900;SDS011;21112;51.976;5.660;2023-04-25T14:40:30;2.10;;;0.88;;
34900;SDS011;21112;51.976;5.660;2023-04-25T14:42:56;5.30;;;1.10;;
34900;SDS011;21112;51.976;5.660;2023-04-25T14:45:23;3.72;;;1.10;;
34900;SDS011;21112;51.976;5.660;2023-04-25T14:47:50;2.08;;;0.70;;
34900;SDS011;21112;51.976;5.660;2023-04-25T14:50:17;5.43;;;1.20;;
34900;SDS011;21112;51.976;5.660;2023-04-25T14:52:44;2.58;;;0.80;;